sensor_id;sensor_type;location;lat;lon;timestamp;noise_LAeq;noise_LA_min;noise_LA_max;noise_LA01;noise_LA95
61249;Laerm;47119;49.130;9.218;2023-02-26T16:01:15;54.83;41.89;69.69;;
61249;Laerm;47119;49.130;9.218;2023-02-26T16:03:42;54.61;41.77;72.54;;
61249;Laerm;47119;49.130;9.218;2023-02-26T16:06:12;51.50;39.16;66.98;;
61249;Laerm;47119;49.130;9.218;2023-02-26T16:08:41;51.70;37.59;67.68;;
61249;Laerm;47119;49.130;9.218;2023-02-26T16:11:11;52.10;42.06;64.44;;
61249;Laerm;47119;49.130;9.218;2023-02-26T16:13:44;55.78;42.32;69.57;;
61249;Laerm;47119;49.130;9.218;2023-02-26T16:16:44;54.54;42.28;67.82;;
61249;Laerm;47119;49.130;9.218;2023-02-26T16:19:15;50.76;39.27;65.13;;
61249;Laerm;47119;49.130;9.218;2023-02-26T16:21:46;51.55;39.63;62.78;;
61249;Laerm;47119;49.130;9.218;2023-02-26T16:24:20;54.47;39.63;66.44;;
61249;Laerm;47119;49.130;9.218;2023-02-26T16:26:52;53.83;44.89;72.10;;
61249;Laerm;47119;49.130;9.218;2023-02-26T16:29:27;57.60;42.53;72.78;;
61249;Laerm;47119;49.130;9.218;2023-02-26T16:32:01;55.81;42.16;75.44;;
61249;Laerm;47119;49.130;9.218;2023-02-26T16:34:35;52.91;40.52;70.63;;
61249;Laerm;47119;49.130;9.218;2023-02-26T16:37:21;55.28;40.66;68.78;;
61249;Laerm;47119;49.130;9.218;2023-02-26T16:39:55;52.09;40.47;65.82;;
61249;Laerm;47119;49.130;9.218;2023-02-26T16:42:43;51.92;37.88;67.26;;
61249;Laerm;47119;49.130;9.218;2023-02-26T16:45:24;53.10;42.25;66.87;;
61249;Laerm;47119;49.130;9.218;2023-02-26T16:47:56;54.60;41.82;67.24;;
61249;Laerm;47119;49.130;9.218;2023-02-26T16:50:27;55.20;41.17;73.85;;
61249;Laerm;47119;49.130;9.218;2023-02-26T16:53:00;53.20;40.19;66.82;;
61249;Laerm;47119;49.130;9.218;2023-02-26T16:55:36;53.70;41.48;66.75;;
61249;Laerm;47119;49.130;9.218;2023-02-26T16:58:12;55.12;41.80;69.39;;
61249;Laerm;47119;49.130;9.218;2023-02-26T17:00:43;57.74;38.95;90.47;;
61249;Laerm;47119;49.130;9.218;2023-02-26T17:03:17;53.17;38.78;65.61;;
61249;Laerm;47119;49.130;9.218;2023-02-26T17:05:54;51.51;38.75;66.20;;
61249;Laerm;47119;49.130;9.218;2023-02-26T17:08:27;51.63;41.85;65.42;;
61249;Laerm;47119;49.130;9.218;2023-02-26T17:11:02;53.71;41.52;68.62;;
61249;Laerm;47119;49.130;9.218;2023-02-26T17:13:32;64.45;46.52;78.83;;
61249;Laerm;47119;49.130;9.218;2023-02-26T17:16:05;53.17;40.41;68.69;;
61249;Laerm;47119;49.130;9.218;2023-02-26T17:18:33;52.83;40.01;67.89;;
61249;Laerm;47119;49.130;9.218;2023-02-26T17:21:01;53.41;43.21;69.25;;
61249;Laerm;47119;49.130;9.218;2023-02-26T17:23:36;53.92;40.87;70.77;;
61249;Laerm;47119;49.130;9.218;2023-02-26T17:26:04;53.72;41.47;66.95;;
61249;Laerm;47119;49.130;9.218;2023-02-26T17:28:40;52.98;39.53;68.03;;
61249;Laerm;47119;49.130;9.218;2023-02-26T17:31:08;52.54;42.13;66.54;;
61249;Laerm;47119;49.130;9.218;2023-02-26T17:33:40;53.75;40.46;68.80;;
61249;Laerm;47119;49.130;9.218;2023-02-26T17:36:13;51.80;40.77;65.14;;
61249;Laerm;47119;49.130;9.218;2023-02-26T17:38:41;51.84;40.03;66.63;;
61249;Laerm;47119;49.130;9.218;2023-02-26T17:41:15;52.39;43.04;65.72;;
61249;Laerm;47119;49.130;9.218;2023-02-26T17:43:45;52.64;40.05;67.83;;
61249;Laerm;47119;49.130;9.218;2023-02-26T17:46:12;49.73;39.36;60.20;;
61249;Laerm;47119;49.130;9.218;2023-02-26T17:48:45;52.52;39.83;67.50;;
61249;Laerm;47119;49.130;9.218;2023-02-26T17:51:14;53.37;40.47;70.07;;
61249;Laerm;47119;49.130;9.218;2023-02-26T17:53:46;51.43;40.47;66.46;;
61249;Laerm;47119;49.130;9.218;2023-02-26T17:56:21;53.00;40.13;66.49;;
61249;Laerm;47119;49.130;9.218;2023-02-26T17:58:50;52.12;39.27;66.44;;
61249;Laerm;47119;49.130;9.218;2023-02-26T18:01:24;53.42;38.95;65.56;;
61249;Laerm;47119;49.130;9.218;2023-02-26T18:03:54;53.76;38.00;71.01;;
61249;Laerm;47119;49.130;9.218;2023-02-26T18:06:23;50.53;39.28;66.94;;
61249;Laerm;47119;49.130;9.218;2023-02-26T18:08:53;51.77;37.09;66.19;;
61249;Laerm;47119;49.130;9.218;2023-02-26T18:11:23;54.02;39.73;68.22;;
61249;Laerm;47119;49.130;9.218;2023-02-26T18:13:56;51.66;37.76;66.40;;
61249;Laerm;47119;49.130;9.218;2023-02-26T18:16:30;52.50;39.23;69.53;;
61249;Laerm;47119;49.130;9.218;2023-02-26T18:18:59;51.74;37.74;66.20;;
61249;Laerm;47119;49.130;9.218;2023-02-26T18:21:32;51.97;40.46;65.15;;
61249;Laerm;47119;49.130;9.218;2023-02-26T18:23:59;53.27;40.62;65.93;;
61249;Laerm;47119;49.130;9.218;2023-02-26T18:26:30;50.38;38.33;65.15;;
61249;Laerm;47119;49.130;9.218;2023-02-26T18:28:58;53.88;39.10;67.63;;
61249;Laerm;47119;49.130;9.218;2023-02-26T18:31:25;51.22;39.17;64.80;;
61249;Laerm;47119;49.130;9.218;2023-02-26T18:34:00;50.81;36.34;66.94;;
61249;Laerm;47119;49.130;9.218;2023-02-26T18:36:31;53.25;40.00;67.71;;
61249;Laerm;47119;49.130;9.218;2023-02-26T18:39:05;51.06;39.92;69.24;;
61249;Laerm;47119;49.130;9.218;2023-02-26T18:41:35;53.84;41.80;68.71;;
61249;Laerm;47119;49.130;9.218;2023-02-26T18:44:03;49.76;35.88;65.45;;
61249;Laerm;47119;49.130;9.218;2023-02-26T18:46:35;52.39;36.42;71.43;;
61249;Laerm;47119;49.130;9.218;2023-02-26T18:49:06;50.22;39.04;67.16;;
61249;Laerm;47119;49.130;9.218;2023-02-26T18:51:33;54.77;40.03;67.41;;
61249;Laerm;47119;49.130;9.218;2023-02-26T18:54:03;51.44;38.25;73.03;;
61249;Laerm;47119;49.130;9.218;2023-02-26T18:56:32;49.92;39.38;64.28;;
61249;Laerm;47119;49.130;9.218;2023-02-26T18:59:01;51.75;38.93;65.68;;
61249;Laerm;47119;49.130;9.218;2023-02-26T19:01:27;49.43;38.23;62.08;;
61249;Laerm;47119;49.130;9.218;2023-02-26T19:03:58;51.17;37.43;67.06;;
61249;Laerm;47119;49.130;9.218;2023-02-26T19:06:26;53.78;38.80;70.54;;
61249;Laerm;47119;49.130;9.218;2023-02-26T19:08:55;51.77;37.16;66.61;;
61249;Laerm;47119;49.130;9.218;2023-02-26T19:11:27;52.69;36.27;67.61;;
61249;Laerm;47119;49.130;9.218;2023-02-26T19:13:54;49.56;39.69;60.92;;
61249;Laerm;47119;49.130;9.218;2023-02-26T19:16:24;47.71;36.27;60.65;;
61249;Laerm;47119;49.130;9.218;2023-02-26T19:18:52;52.63;39.75;68.67;;
61249;Laerm;47119;49.130;9.218;2023-02-26T19:21:19;49.90;39.49;62.85;;
61249;Laerm;47119;49.130;9.218;2023-02-26T19:23:48;51.37;36.49;68.53;;
61249;Laerm;47119;49.130;9.218;2023-02-26T19:26:17;51.51;40.10;62.40;;
61249;Laerm;47119;49.130;9.218;2023-02-26T19:28:49;53.39;38.32;66.58;;
61249;Laerm;47119;49.130;9.218;2023-02-26T19:31:18;49.21;38.12;63.32;;
61249;Laerm;47119;49.130;9.218;2023-02-26T19:33:47;47.22;34.36;64.53;;
61249;Laerm;47119;49.130;9.218;2023-02-26T19:36:16;52.99;42.49;69.73;;
61249;Laerm;47119;49.130;9.218;2023-02-26T19:38:48;51.28;39.09;66.60;;
61249;Laerm;47119;49.130;9.218;2023-02-26T19:41:17;52.54;39.08;68.48;;
61249;Laerm;47119;49.130;9.218;2023-02-26T19:43:44;47.61;36.32;61.47;;
61249;Laerm;47119;49.130;9.218;2023-02-26T19:46:14;49.48;36.58;65.80;;
61249;Laerm;47119;49.130;9.218;2023-02-26T19:48:43;50.98;37.90;68.22;;
61249;Laerm;47119;49.130;9.218;2023-02-26T19:51:41;47.72;36.77;63.05;;
61249;Laerm;47119;49.130;9.218;2023-02-26T19:54:14;45.67;36.26;54.65;;
61249;Laerm;47119;49.130;9.218;2023-02-26T19:56:42;52.79;37.99;75.45;;
61249;Laerm;47119;49.130;9.218;2023-02-26T19:59:10;52.73;41.28;64.95;;
61249;Laerm;47119;49.130;9.218;2023-02-26T20:01:38;52.70;39.28;67.25;;
61249;Laerm;47119;49.130;9.218;2023-02-26T20:04:06;51.95;37.63;65.48;;
61249;Laerm;47119;49.130;9.218;2023-02-26T20:06:34;51.82;37.31;68.07;;
61249;Laerm;47119;49.130;9.218;2023-02-26T20:09:02;46.86;37.43;58.69;;
61249;Laerm;47119;49.130;9.218;2023-02-26T20:11:33;48.27;38.17;66.02;;
61249;Laerm;47119;49.130;9.218;2023-02-26T20:14:00;48.76;37.14;63.24;;
61249;Laerm;47119;49.130;9.218;2023-02-26T20:16:29;45.63;36.43;55.37;;
61249;Laerm;47119;49.130;9.218;2023-02-26T20:19:07;45.21;36.77;63.96;;
61249;Laerm;47119;49.130;9.218;2023-02-26T20:21:35;46.57;37.05;56.03;;
61249;Laerm;47119;49.130;9.218;2023-02-26T20:24:02;49.99;37.65;66.70;;
61249;Laerm;47119;49.130;9.218;2023-02-26T20:26:30;53.38;36.70;72.48;;
61249;Laerm;47119;49.130;9.218;2023-02-26T20:28:58;49.16;39.93;62.72;;
61249;Laerm;47119;49.130;9.218;2023-02-26T20:31:28;48.69;38.30;61.07;;
61249;Laerm;47119;49.130;9.218;2023-02-26T20:34:00;50.88;36.32;66.82;;
61249;Laerm;47119;49.130;9.218;2023-02-26T20:36:27;47.10;34.41;67.53;;
61249;Laerm;47119;49.130;9.218;2023-02-26T20:38:54;45.26;35.31;56.08;;
61249;Laerm;47119;49.130;9.218;2023-02-26T20:41:21;45.24;36.34;59.45;;
61249;Laerm;47119;49.130;9.218;2023-02-26T20:43:48;51.27;39.66;68.97;;
61249;Laerm;47119;49.130;9.218;2023-02-26T20:46:17;50.32;38.06;64.75;;
61249;Laerm;47119;49.130;9.218;2023-02-26T20:48:44;46.42;36.05;61.34;;
61249;Laerm;47119;49.130;9.218;2023-02-26T20:51:12;48.51;35.65;64.57;;
61249;Laerm;47119;49.130;9.218;2023-02-26T20:53:40;47.23;35.90;63.11;;
61249;Laerm;47119;49.130;9.218;2023-02-26T20:56:09;51.27;35.87;66.49;;
61249;Laerm;47119;49.130;9.218;2023-02-26T20:58:36;47.13;34.88;63.31;;
61249;Laerm;47119;49.130;9.218;2023-02-26T21:01:06;50.25;37.25;65.17;;
61249;Laerm;47119;49.130;9.218;2023-02-26T21:03:57;49.64;35.32;67.40;;
61249;Laerm;47119;49.130;9.218;2023-02-26T21:06:48;48.59;35.21;65.09;;
61249;Laerm;47119;49.130;9.218;2023-02-26T21:09:15;50.48;36.64;65.94;;
61249;Laerm;47119;49.130;9.218;2023-02-26T21:11:42;44.47;34.87;58.61;;
61249;Laerm;47119;49.130;9.218;2023-02-26T21:14:09;50.32;36.50;67.66;;
61249;Laerm;47119;49.130;9.218;2023-02-26T21:16:39;48.80;34.57;68.28;;
61249;Laerm;47119;49.130;9.218;2023-02-26T21:19:09;48.75;33.58;65.31;;
61249;Laerm;47119;49.130;9.218;2023-02-26T21:21:39;46.68;36.42;62.44;;
61249;Laerm;47119;49.130;9.218;2023-02-26T21:24:11;50.68;33.18;66.91;;
61249;Laerm;47119;49.130;9.218;2023-02-26T21:26:39;48.44;33.12;61.49;;
61249;Laerm;47119;49.130;9.218;2023-02-26T21:29:10;50.27;36.67;64.20;;
61249;Laerm;47119;49.130;9.218;2023-02-26T21:31:40;51.12;33.00;64.14;;
61249;Laerm;47119;49.130;9.218;2023-02-26T21:34:09;44.02;32.05;60.88;;
61249;Laerm;47119;49.130;9.218;2023-02-26T21:36:42;52.21;34.17;65.66;;
61249;Laerm;47119;49.130;9.218;2023-02-26T21:39:55;47.49;35.15;64.98;;
61249;Laerm;47119;49.130;9.218;2023-02-26T21:42:11;48.74;36.11;64.81;;
61249;Laerm;47119;49.130;9.218;2023-02-26T21:44:39;44.98;33.65;56.75;;
61249;Laerm;47119;49.130;9.218;2023-02-26T21:47:06;50.43;35.23;67.57;;
61249;Laerm;47119;49.130;9.218;2023-02-26T21:49:38;50.19;32.71;70.85;;
61249;Laerm;47119;49.130;9.218;2023-02-26T21:52:06;48.61;33.01;68.21;;
61249;Laerm;47119;49.130;9.218;2023-02-26T21:54:34;44.02;34.10;57.19;;
61249;Laerm;47119;49.130;9.218;2023-02-26T21:57:03;44.72;34.86;57.85;;
61249;Laerm;47119;49.130;9.218;2023-02-26T21:59:33;54.42;32.69;76.58;;
61249;Laerm;47119;49.130;9.218;2023-02-26T22:02:01;45.81;34.69;62.87;;
61249;Laerm;47119;49.130;9.218;2023-02-26T22:04:34;41.33;33.63;53.74;;
61249;Laerm;47119;49.130;9.218;2023-02-26T22:07:01;47.01;33.87;64.67;;
61249;Laerm;47119;49.130;9.218;2023-02-26T22:09:30;44.83;34.59;56.64;;
61249;Laerm;47119;49.130;9.218;2023-02-26T22:11:57;51.26;34.35;68.22;;
61249;Laerm;47119;49.130;9.218;2023-02-26T22:14:24;47.44;34.49;65.81;;
61249;Laerm;47119;49.130;9.218;2023-02-26T22:16:51;47.85;33.14;66.55;;
61249;Laerm;47119;49.130;9.218;2023-02-26T22:19:18;42.28;32.19;56.56;;
61249;Laerm;47119;49.130;9.218;2023-02-26T22:21:50;49.66;36.46;60.72;;
61249;Laerm;47119;49.130;9.218;2023-02-26T22:24:23;48.81;31.32;65.21;;
61249;Laerm;47119;49.130;9.218;2023-02-26T22:26:53;56.21;32.65;73.47;;
61249;Laerm;47119;49.130;9.218;2023-02-26T22:29:22;50.49;33.10;68.41;;
61249;Laerm;47119;49.130;9.218;2023-02-26T22:31:52;45.67;32.22;60.69;;
61249;Laerm;47119;49.130;9.218;2023-02-26T22:34:31;43.15;33.46;59.10;;
61249;Laerm;47119;49.130;9.218;2023-02-26T22:37:03;42.83;33.87;53.40;;
61249;Laerm;47119;49.130;9.218;2023-02-26T22:39:30;41.07;31.92;50.02;;
61249;Laerm;47119;49.130;9.218;2023-02-26T22:41:58;43.92;32.53;61.38;;
61249;Laerm;47119;49.130;9.218;2023-02-26T22:44:28;43.96;34.26;56.90;;
61249;Laerm;47119;49.130;9.218;2023-02-26T22:46:55;43.06;33.21;60.98;;
61249;Laerm;47119;49.130;9.218;2023-02-26T22:49:23;42.41;32.89;54.56;;
61249;Laerm;47119;49.130;9.218;2023-02-26T22:51:50;48.06;32.99;62.90;;
61249;Laerm;47119;49.130;9.218;2023-02-26T22:54:18;43.24;34.77;58.29;;
61249;Laerm;47119;49.130;9.218;2023-02-26T22:56:46;47.99;32.09;66.03;;
61249;Laerm;47119;49.130;9.218;2023-02-26T22:59:13;39.80;32.38;51.59;;
61249;Laerm;47119;49.130;9.218;2023-02-26T23:01:40;49.43;32.51;65.83;;
61249;Laerm;47119;49.130;9.218;2023-02-26T23:04:07;44.71;34.86;58.74;;
61249;Laerm;47119;49.130;9.218;2023-02-26T23:06:36;46.45;34.65;59.76;;
61249;Laerm;47119;49.130;9.218;2023-02-26T23:09:03;49.82;33.51;69.28;;
61249;Laerm;47119;49.130;9.218;2023-02-26T23:11:35;43.32;32.06;62.87;;
61249;Laerm;47119;49.130;9.218;2023-02-26T23:14:02;47.68;33.14;66.67;;
61249;Laerm;47119;49.130;9.218;2023-02-26T23:16:29;38.55;32.23;47.22;;
61249;Laerm;47119;49.130;9.218;2023-02-26T23:18:58;49.48;32.12;66.76;;
61249;Laerm;47119;49.130;9.218;2023-02-26T23:21:29;45.05;32.85;62.22;;
61249;Laerm;47119;49.130;9.218;2023-02-26T23:23:57;42.45;33.41;54.03;;
61249;Laerm;47119;49.130;9.218;2023-02-26T23:26:24;45.05;33.44;61.77;;
61249;Laerm;47119;49.130;9.218;2023-02-26T23:28:55;51.38;34.70;69.61;;
61249;Laerm;47119;49.130;9.218;2023-02-26T23:31:23;45.51;33.09;64.48;;
61249;Laerm;47119;49.130;9.218;2023-02-26T23:33:54;41.47;33.00;52.94;;
61249;Laerm;47119;49.130;9.218;2023-02-26T23:36:26;39.05;32.76;49.38;;
61249;Laerm;47119;49.130;9.218;2023-02-26T23:38:53;38.08;32.22;48.87;;
61249;Laerm;47119;49.130;9.218;2023-02-26T23:41:20;46.34;32.94;64.87;;
61249;Laerm;47119;49.130;9.218;2023-02-26T23:43:47;40.96;33.17;60.79;;
61249;Laerm;47119;49.130;9.218;2023-02-26T23:46:16;47.51;32.82;67.34;;
61249;Laerm;47119;49.130;9.218;2023-02-26T23:48:43;42.62;33.31;62.94;;
61249;Laerm;47119;49.130;9.218;2023-02-26T23:51:10;40.18;32.97;50.62;;
61249;Laerm;47119;49.130;9.218;2023-02-26T23:53:37;39.99;31.99;54.67;;
61249;Laerm;47119;49.130;9.218;2023-02-26T23:56:05;47.35;33.05;66.55;;
61249;Laerm;47119;49.130;9.218;2023-02-26T23:58:35;45.66;32.49;63.05;;
